Barrow, AK

2:44 PM AKST on February 13, 2016 (GMT -0900)
Wiley Post-Will Rogers Memorial | | Change Station
CLOSE
Current Station
Airport
Location: Barrow,
Elevation: 43 ft
Nearby Weather Stations
Active Advisory: Blizzard Warning

Elev 43 ft 71.28 °N, 156.79 °W | Updated 51 minutes ago

Blowing Snow
Blowing Snow
-5 °F
Feels Like -34 °F
N
32
Wind Variable Wind from ENE

Today
High -- | Low -- °F
--% Chance of Precip.
Yesterday
High -- | Low -- °F
Precip. -- in
Pressure 29.77 in
Visibility 0.5 miles
Clouds Mostly Cloudy 800 ft
Mostly Cloudy 10000 ft
Windchill -34 °F
Dew Point -8 °F
Humidity 87%
Rainfall 0.21 in
Snow Depth Not available.
10:24 AM 4:59 PM
Waxing Crescent, 35% visible
METAR PABR 132253Z 07028KT 1/2SM R07/3000V4500FT BLSN SCT000 BKN008 BKN100 M21/M22 A2976 RMK AO2 PK WND 07033/2247 SLP079 BLSN SCT000 T12061222 $
Pressure 29.77 in
Visibility 0.5 miles
Clouds Mostly Cloudy 800 ft
Mostly Cloudy 10000 ft
Windchill -34 °F
Dew Point -8 °F
Humidity 87%
Rainfall 0.21 in
Snow Depth Not available.
10:24 AM 4:59 PM
Waxing Crescent, 35% visible
METAR PABR 132253Z 07028KT 1/2SM R07/3000V4500FT BLSN SCT000 BKN008 BKN100 M21/M22 A2976 RMK AO2 PK WND 07033/2247 SLP079 BLSN SCT000 T12061222 $

10-Day Weather Forecast

Almanac

Astronomy

Feb. 13, 2016 Rise Set
Actual Time
Civil Twilight
Nautical Twilight
Astronomical Twilight
Moon
Length of Visible Light
Length of Day
Tomorrow will be .
, % of the Moon is Illuminated

Today's Extremes

State Highs State Lows

Community

WunderPhotos

Upload Photos

1,892,705 photos uploaded!

WunderBlog® & News

Nearby

Air Quality

  Air Quality AQ Index Pollutant
Not available.

Snow Depth

Station Depth Elevation

Earthquake Activity

City Distance Mag. Time & Date
Minimum magnitude displayed is 2.5.

Coastal Water Temperatures

Place Temperature

Stations

Nearby Weather Stations

Station Location Temp. Windchill Dew Point Humidity Wind Precip. Elev Updated Type
                   

Watches & Warnings

Blizzard Warning
Issued: 1:02 PM AKST Feb. 13, 2016 – National Weather Service

... Blizzard Warning remains in effect until 6 am akst Sunday...

* blowing snow... reducing visibility to one quarter mile or less
at times.

* Winds... east winds to 35 mph with gusts to 45 mph diminishing to
30 mph gusting to 40 mph overnight.

* Timing... conditions will improve slightly toward morning as
winds gradually diminish.

* Impacts... visibility will be very poor and snow will accumulate
into drifts. Whiteout conditions may occur. Travel and outdoor
activities will be difficult.

Precautionary/preparedness actions...

A Blizzard Warning means severe winter weather conditions in
blowing snow with strong winds and very poor visibilities are
occurring or expected.